Etusivu
METAR-TAF:

METAR-TAF

Lentoasemat :

Minocqua / Woodruff, Wisconsin, Yhdysvallat

Leveyspiiri: 45-56N, Pituuspiiri: 089-44W, korkeus merenpinnasta: 496 m

Tämänhetkinen sää

Tämä raportti tehtiin 23 minuuttia sitten, kello 13.15 UTC
Tuuli 5 kn etelästä
Lämpötila 22°C
Kosteus 88%
Ilmanpaine 1007 hPa
Näkyvyys: 16.1 km
Hajanaisia pilviä 9500 ft:n korkeudessa

METAR: KARV 181315Z AUTO 18005KT 10SM SCT095 22/20 A2975 RMK AO2 LTG DSNT W T02220199

Aika: 08:38 (13:38 UTC)


TAF: puuttuu

Säähavainnot ja -ennusteet yli 4000 lentoasemalta (METAR- ja TAF-raportit).

Käytössä olevat sääasemat on merkitty karttaan keltaisilla ja punaisilla pisteillä.

Aseta hiiri pisteen päälle nähdäksesi sääaseman nimen.

Klikkaa sitten nähdäksesi säähavainnot ja -ennusteet.

Kartan vaihtaminen: klikkaa mustalla rastilla varustettuja vihreitä pisteitä, niin voit zoomata sisään; viivalla varustettua vihreää pistettä, niin voit zoomata ulos tai vihreitä nuolia, niin pääset viereisille kartoille.


METAR-TAF: